sensor_id;sensor_type;location;lat;lon;timestamp;P1;durP1;ratioP1;P2;durP2;ratioP2
5774;SDS011;2913;51.120;6.772;2023-06-10T00:01:29;176.95;;;78.93;;
5774;SDS011;2913;51.120;6.772;2023-06-10T00:03:59;16.13;;;8.85;;
5774;SDS011;2913;51.120;6.772;2023-06-10T00:06:24;66.85;;;31.40;;
5774;SDS011;2913;51.120;6.772;2023-06-10T00:08:50;28.63;;;12.90;;
5774;SDS011;2913;51.120;6.772;2023-06-10T00:11:19;70.00;;;26.33;;
5774;SDS011;2913;51.120;6.772;2023-06-10T00:13:49;40.67;;;18.23;;
5774;SDS011;2913;51.120;6.772;2023-06-10T00:16:14;101.45;;;32.97;;
5774;SDS011;2913;51.120;6.772;2023-06-10T00:18:42;43.90;;;24.17;;
5774;SDS011;2913;51.120;6.772;2023-06-10T00:21:11;41.65;;;16.55;;
5774;SDS011;2913;51.120;6.772;2023-06-10T00:23:41;49.38;;;22.98;;
5774;SDS011;2913;51.120;6.772;2023-06-10T00:26:09;13.23;;;8.88;;
5774;SDS011;2913;51.120;6.772;2023-06-10T00:28:35;11.52;;;8.30;;
5774;SDS011;2913;51.120;6.772;2023-06-10T00:31:03;99.13;;;22.48;;
5774;SDS011;2913;51.120;6.772;2023-06-10T00:33:29;16.85;;;9.35;;
5774;SDS011;2913;51.120;6.772;2023-06-10T00:35:55;18.38;;;9.68;;
5774;SDS011;2913;51.120;6.772;2023-06-10T00:38:23;43.60;;;14.10;;
5774;SDS011;2913;51.120;6.772;2023-06-10T00:40:49;1041.57;;;270.85;;
5774;SDS011;2913;51.120;6.772;2023-06-10T00:43:15;210.07;;;85.60;;
5774;SDS011;2913;51.120;6.772;2023-06-10T00:45:42;230.27;;;75.75;;
5774;SDS011;2913;51.120;6.772;2023-06-10T00:48:08;133.93;;;60.95;;
5774;SDS011;2913;51.120;6.772;2023-06-10T00:50:35;40.30;;;22.63;;
5774;SDS011;2913;51.120;6.772;2023-06-10T00:53:04;241.52;;;96.65;;
5774;SDS011;2913;51.120;6.772;2023-06-10T00:55:32;64.45;;;24.13;;
5774;SDS011;2913;51.120;6.772;2023-06-10T00:57:59;53.17;;;25.20;;
5774;SDS011;2913;51.120;6.772;2023-06-10T01:00:25;62.63;;;33.13;;
5774;SDS011;2913;51.120;6.772;2023-06-10T01:02:53;1982.97;;;500.30;;
5774;SDS011;2913;51.120;6.772;2023-06-10T01:05:18;58.95;;;29.48;;
5774;SDS011;2913;51.120;6.772;2023-06-10T01:07:54;24.40;;;12.02;;
5774;SDS011;2913;51.120;6.772;2023-06-10T01:12:59;61.90;;;18.75;;
5774;SDS011;2913;51.120;6.772;2023-06-10T01:15:33;1282.53;;;320.85;;
5774;SDS011;2913;51.120;6.772;2023-06-10T01:18:01;48.92;;;21.02;;
5774;SDS011;2913;51.120;6.772;2023-06-10T01:20:29;171.05;;;36.70;;
5774;SDS011;2913;51.120;6.772;2023-06-10T01:22:57;697.80;;;205.13;;
5774;SDS011;2913;51.120;6.772;2023-06-10T01:25:24;773.63;;;222.98;;
5774;SDS011;2913;51.120;6.772;2023-06-10T01:28:13;1181.22;;;314.20;;
5774;SDS011;2913;51.120;6.772;2023-06-10T01:30:48;1244.93;;;328.45;;
5774;SDS011;2913;51.120;6.772;2023-06-10T01:33:33;1172.15;;;307.92;;
5774;SDS011;2913;51.120;6.772;2023-06-10T01:36:06;920.10;;;252.57;;
5774;SDS011;2913;51.120;6.772;2023-06-10T01:38:33;634.17;;;178.43;;
5774;SDS011;2913;51.120;6.772;2023-06-10T01:41:04;1999.90;;;619.63;;
5774;SDS011;2913;51.120;6.772;2023-06-10T01:43:34;1999.90;;;577.53;;
5774;SDS011;2913;51.120;6.772;2023-06-10T01:46:02;1999.90;;;601.83;;
5774;SDS011;2913;51.120;6.772;2023-06-10T01:48:33;1999.90;;;617.17;;
5774;SDS011;2913;51.120;6.772;2023-06-10T01:50:59;1999.90;;;626.58;;
5774;SDS011;2913;51.120;6.772;2023-06-10T01:53:27;1999.90;;;666.40;;
5774;SDS011;2913;51.120;6.772;2023-06-10T01:55:53;1999.90;;;658.80;;
5774;SDS011;2913;51.120;6.772;2023-06-10T01:58:21;1999.90;;;664.42;;
5774;SDS011;2913;51.120;6.772;2023-06-10T02:00:49;1999.90;;;668.88;;
5774;SDS011;2913;51.120;6.772;2023-06-10T02:03:14;1999.90;;;681.95;;
5774;SDS011;2913;51.120;6.772;2023-06-10T02:05:40;1999.90;;;712.58;;
5774;SDS011;2913;51.120;6.772;2023-06-10T02:08:06;1999.90;;;691.90;;
5774;SDS011;2913;51.120;6.772;2023-06-10T02:10:31;1999.90;;;682.90;;
5774;SDS011;2913;51.120;6.772;2023-06-10T02:12:59;1999.90;;;697.90;;
5774;SDS011;2913;51.120;6.772;2023-06-10T02:15:25;1999.90;;;705.67;;
5774;SDS011;2913;51.120;6.772;2023-06-10T02:17:51;1999.90;;;684.47;;
5774;SDS011;2913;51.120;6.772;2023-06-10T02:20:17;1999.90;;;711.60;;
5774;SDS011;2913;51.120;6.772;2023-06-10T02:22:42;1999.90;;;700.75;;
5774;SDS011;2913;51.120;6.772;2023-06-10T02:25:08;1999.90;;;682.63;;
5774;SDS011;2913;51.120;6.772;2023-06-10T02:27:36;1999.90;;;679.25;;
5774;SDS011;2913;51.120;6.772;2023-06-10T02:30:02;1999.90;;;687.40;;
5774;SDS011;2913;51.120;6.772;2023-06-10T02:32:30;1999.90;;;673.60;;
5774;SDS011;2913;51.120;6.772;2023-06-10T02:34:55;1999.90;;;689.03;;
5774;SDS011;2913;51.120;6.772;2023-06-10T02:37:21;1999.90;;;698.58;;
5774;SDS011;2913;51.120;6.772;2023-06-10T02:39:47;1999.90;;;687.50;;
5774;SDS011;2913;51.120;6.772;2023-06-10T02:42:12;1999.90;;;685.33;;
5774;SDS011;2913;51.120;6.772;2023-06-10T02:44:38;1999.90;;;695.17;;
5774;SDS011;2913;51.120;6.772;2023-06-10T02:47:04;1999.90;;;677.05;;
5774;SDS011;2913;51.120;6.772;2023-06-10T02:49:34;1999.90;;;658.33;;
5774;SDS011;2913;51.120;6.772;2023-06-10T02:52:02;1999.90;;;646.58;;
5774;SDS011;2913;51.120;6.772;2023-06-10T02:54:32;1999.90;;;630.17;;
5774;SDS011;2913;51.120;6.772;2023-06-10T02:56:57;1999.90;;;623.97;;
5774;SDS011;2913;51.120;6.772;2023-06-10T02:59:23;1999.90;;;638.13;;
5774;SDS011;2913;51.120;6.772;2023-06-10T03:01:48;1999.90;;;647.88;;
5774;SDS011;2913;51.120;6.772;2023-06-10T03:04:14;1999.90;;;644.92;;
5774;SDS011;2913;51.120;6.772;2023-06-10T03:06:40;1999.90;;;637.13;;
5774;SDS011;2913;51.120;6.772;2023-06-10T03:09:06;1999.90;;;645.33;;
5774;SDS011;2913;51.120;6.772;2023-06-10T03:11:34;1999.90;;;647.83;;
5774;SDS011;2913;51.120;6.772;2023-06-10T03:14:00;1999.90;;;646.30;;
5774;SDS011;2913;51.120;6.772;2023-06-10T03:16:26;1999.90;;;642.22;;
5774;SDS011;2913;51.120;6.772;2023-06-10T03:18:52;1999.90;;;628.88;;
5774;SDS011;2913;51.120;6.772;2023-06-10T03:21:18;1999.90;;;578.75;;
5774;SDS011;2913;51.120;6.772;2023-06-10T03:23:46;1999.90;;;584.00;;
5774;SDS011;2913;51.120;6.772;2023-06-10T03:26:14;1999.90;;;577.78;;
5774;SDS011;2913;51.120;6.772;2023-06-10T03:28:40;1999.90;;;576.70;;
5774;SDS011;2913;51.120;6.772;2023-06-10T03:31:08;1999.90;;;580.67;;
5774;SDS011;2913;51.120;6.772;2023-06-10T03:33:34;1999.90;;;577.45;;
5774;SDS011;2913;51.120;6.772;2023-06-10T03:36:02;1999.90;;;575.90;;
5774;SDS011;2913;51.120;6.772;2023-06-10T03:38:28;1999.90;;;590.78;;
5774;SDS011;2913;51.120;6.772;2023-06-10T03:40:56;1999.90;;;584.92;;
5774;SDS011;2913;51.120;6.772;2023-06-10T03:43:21;1999.90;;;582.60;;
5774;SDS011;2913;51.120;6.772;2023-06-10T03:45:47;1999.90;;;580.13;;
5774;SDS011;2913;51.120;6.772;2023-06-10T03:48:14;1999.90;;;571.42;;
5774;SDS011;2913;51.120;6.772;2023-06-10T03:50:40;1999.90;;;583.58;;
5774;SDS011;2913;51.120;6.772;2023-06-10T03:53:06;1999.90;;;585.33;;
5774;SDS011;2913;51.120;6.772;2023-06-10T03:55:34;1999.90;;;583.75;;
5774;SDS011;2913;51.120;6.772;2023-06-10T03:57:59;1999.90;;;583.50;;
5774;SDS011;2913;51.120;6.772;2023-06-10T04:00:30;1999.90;;;579.67;;
5774;SDS011;2913;51.120;6.772;2023-06-10T04:03:06;1999.90;;;587.08;;
5774;SDS011;2913;51.120;6.772;2023-06-10T04:05:34;1999.90;;;589.17;;
5774;SDS011;2913;51.120;6.772;2023-06-10T04:08:00;1999.90;;;602.55;;
5774;SDS011;2913;51.120;6.772;2023-06-10T04:10:26;1999.90;;;582.92;;
5774;SDS011;2913;51.120;6.772;2023-06-10T04:12:52;1999.90;;;603.30;;
5774;SDS011;2913;51.120;6.772;2023-06-10T04:15:18;615.70;;;149.60;;
5774;SDS011;2913;51.120;6.772;2023-06-10T04:17:43;24.45;;;10.27;;
5774;SDS011;2913;51.120;6.772;2023-06-10T04:20:11;1816.20;;;478.67;;
5774;SDS011;2913;51.120;6.772;2023-06-10T04:22:37;25.50;;;17.00;;
5774;SDS011;2913;51.120;6.772;2023-06-10T04:25:02;22.63;;;11.40;;
5774;SDS011;2913;51.120;6.772;2023-06-10T04:27:30;318.50;;;109.00;;
5774;SDS011;2913;51.120;6.772;2023-06-10T04:29:58;1999.90;;;539.15;;
5774;SDS011;2913;51.120;6.772;2023-06-10T04:32:28;1999.90;;;748.15;;
5774;SDS011;2913;51.120;6.772;2023-06-10T04:34:54;26.17;;;13.00;;
5774;SDS011;2913;51.120;6.772;2023-06-10T04:37:22;1999.90;;;662.83;;
5774;SDS011;2913;51.120;6.772;2023-06-10T04:39:48;52.20;;;20.42;;
5774;SDS011;2913;51.120;6.772;2023-06-10T04:42:13;1999.90;;;546.65;;
5774;SDS011;2913;51.120;6.772;2023-06-10T04:44:39;1999.90;;;665.83;;
5774;SDS011;2913;51.120;6.772;2023-06-10T04:47:05;1999.90;;;769.33;;
5774;SDS011;2913;51.120;6.772;2023-06-10T04:49:35;598.80;;;139.20;;
5774;SDS011;2913;51.120;6.772;2023-06-10T04:52:05;366.85;;;85.18;;
5774;SDS011;2913;51.120;6.772;2023-06-10T04:54:31;1999.90;;;665.30;;
5774;SDS011;2913;51.120;6.772;2023-06-10T04:57:01;1999.90;;;772.25;;
5774;SDS011;2913;51.120;6.772;2023-06-10T04:59:26;18.48;;;9.20;;
5774;SDS011;2913;51.120;6.772;2023-06-10T05:01:54;16.77;;;9.18;;
5774;SDS011;2913;51.120;6.772;2023-06-10T05:04:20;18.38;;;8.77;;
5774;SDS011;2913;51.120;6.772;2023-06-10T05:06:53;14.32;;;8.38;;
5774;SDS011;2913;51.120;6.772;2023-06-10T05:09:18;16.55;;;9.02;;
5774;SDS011;2913;51.120;6.772;2023-06-10T05:11:44;19.77;;;9.25;;
5774;SDS011;2913;51.120;6.772;2023-06-10T05:14:12;17.85;;;8.60;;
5774;SDS011;2913;51.120;6.772;2023-06-10T05:16:46;20.98;;;9.07;;
5774;SDS011;2913;51.120;6.772;2023-06-10T05:19:14;15.95;;;8.57;;
5774;SDS011;2913;51.120;6.772;2023-06-10T05:21:43;21.10;;;8.32;;
5774;SDS011;2913;51.120;6.772;2023-06-10T05:24:12;14.75;;;8.90;;
5774;SDS011;2913;51.120;6.772;2023-06-10T05:26:38;1627.22;;;379.58;;
5774;SDS011;2913;51.120;6.772;2023-06-10T05:29:08;301.85;;;61.58;;
5774;SDS011;2913;51.120;6.772;2023-06-10T05:31:34;26.45;;;8.55;;
5774;SDS011;2913;51.120;6.772;2023-06-10T05:33:59;17.05;;;7.68;;
5774;SDS011;2913;51.120;6.772;2023-06-10T05:36:25;16.92;;;8.15;;
5774;SDS011;2913;51.120;6.772;2023-06-10T05:38:51;732.08;;;176.60;;
5774;SDS011;2913;51.120;6.772;2023-06-10T05:41:19;22.50;;;9.13;;
5774;SDS011;2913;51.120;6.772;2023-06-10T05:43:45;72.20;;;14.88;;
5774;SDS011;2913;51.120;6.772;2023-06-10T05:46:11;15.40;;;8.00;;
5774;SDS011;2913;51.120;6.772;2023-06-10T05:48:37;18.58;;;7.47;;
5774;SDS011;2913;51.120;6.772;2023-06-10T05:51:02;12.32;;;6.95;;
5774;SDS011;2913;51.120;6.772;2023-06-10T05:53:31;14.82;;;6.15;;
5774;SDS011;2913;51.120;6.772;2023-06-10T05:55:57;47.90;;;13.18;;
5774;SDS011;2913;51.120;6.772;2023-06-10T05:58:23;12.38;;;6.75;;
5774;SDS011;2913;51.120;6.772;2023-06-10T06:00:49;14.10;;;6.93;;
5774;SDS011;2913;51.120;6.772;2023-06-10T06:03:17;10.48;;;6.28;;
5774;SDS011;2913;51.120;6.772;2023-06-10T06:05:45;10.95;;;6.25;;
5774;SDS011;2913;51.120;6.772;2023-06-10T06:08:13;9.63;;;5.85;;
5774;SDS011;2913;51.120;6.772;2023-06-10T06:10:42;20.17;;;6.63;;
5774;SDS011;2913;51.120;6.772;2023-06-10T06:13:08;15.00;;;6.38;;
5774;SDS011;2913;51.120;6.772;2023-06-10T06:15:33;16.77;;;6.57;;
5774;SDS011;2913;51.120;6.772;2023-06-10T06:17:59;14.13;;;6.55;;
5774;SDS011;2913;51.120;6.772;2023-06-10T06:20:24;17.52;;;6.35;;
5774;SDS011;2913;51.120;6.772;2023-06-10T06:22:50;8.85;;;5.75;;
5774;SDS011;2913;51.120;6.772;2023-06-10T06:25:20;12.88;;;6.10;;
5774;SDS011;2913;51.120;6.772;2023-06-10T06:27:46;10.98;;;6.03;;
5774;SDS011;2913;51.120;6.772;2023-06-10T06:30:14;15.45;;;6.38;;
5774;SDS011;2913;51.120;6.772;2023-06-10T06:32:40;14.80;;;6.10;;
5774;SDS011;2913;51.120;6.772;2023-06-10T06:35:07;9.10;;;5.55;;
5774;SDS011;2913;51.120;6.772;2023-06-10T06:37:33;12.15;;;6.03;;
5774;SDS011;2913;51.120;6.772;2023-06-10T06:40:00;10.93;;;6.00;;
5774;SDS011;2913;51.120;6.772;2023-06-10T06:42:26;14.60;;;5.90;;
5774;SDS011;2913;51.120;6.772;2023-06-10T06:44:51;416.70;;;102.45;;
5774;SDS011;2913;51.120;6.772;2023-06-10T06:47:17;24.60;;;7.47;;
5774;SDS011;2913;51.120;6.772;2023-06-10T06:49:45;30.65;;;7.20;;
5774;SDS011;2913;51.120;6.772;2023-06-10T06:52:13;11.55;;;6.03;;
5774;SDS011;2913;51.120;6.772;2023-06-10T06:54:39;9.43;;;5.32;;
5774;SDS011;2913;51.120;6.772;2023-06-10T06:57:07;22.23;;;6.93;;
5774;SDS011;2913;51.120;6.772;2023-06-10T06:59:33;1526.65;;;380.42;;
5774;SDS011;2913;51.120;6.772;2023-06-10T07:01:59;645.00;;;162.02;;
5774;SDS011;2913;51.120;6.772;2023-06-10T07:04:25;1225.68;;;307.58;;
5774;SDS011;2913;51.120;6.772;2023-06-10T07:06:50;1839.60;;;458.42;;
5774;SDS011;2913;51.120;6.772;2023-06-10T07:09:18;1413.78;;;343.75;;
5774;SDS011;2913;51.120;6.772;2023-06-10T07:11:48;1136.18;;;288.38;;
5774;SDS011;2913;51.120;6.772;2023-06-10T07:14:16;1831.28;;;459.30;;
5774;SDS011;2913;51.120;6.772;2023-06-10T07:16:42;1606.93;;;405.45;;
5774;SDS011;2913;51.120;6.772;2023-06-10T07:19:11;13.05;;;5.93;;
5774;SDS011;2913;51.120;6.772;2023-06-10T07:21:36;1985.40;;;482.63;;
5774;SDS011;2913;51.120;6.772;2023-06-10T07:24:04;9.95;;;5.55;;
5774;SDS011;2913;51.120;6.772;2023-06-10T07:26:30;8.90;;;6.00;;
5774;SDS011;2913;51.120;6.772;2023-06-10T07:28:58;13.38;;;6.13;;
5774;SDS011;2913;51.120;6.772;2023-06-10T07:31:24;11.32;;;6.20;;
5774;SDS011;2913;51.120;6.772;2023-06-10T07:33:50;9.55;;;5.63;;
5774;SDS011;2913;51.120;6.772;2023-06-10T07:36:15;11.93;;;6.43;;
5774;SDS011;2913;51.120;6.772;2023-06-10T07:38:43;11.68;;;6.10;;
5774;SDS011;2913;51.120;6.772;2023-06-10T07:41:09;8.75;;;5.65;;
5774;SDS011;2913;51.120;6.772;2023-06-10T07:43:37;11.38;;;6.38;;
5774;SDS011;2913;51.120;6.772;2023-06-10T07:46:05;17.35;;;6.50;;
5774;SDS011;2913;51.120;6.772;2023-06-10T07:48:31;15.32;;;5.70;;
5774;SDS011;2913;51.120;6.772;2023-06-10T07:50:59;9.45;;;5.55;;
5774;SDS011;2913;51.120;6.772;2023-06-10T07:53:24;11.30;;;6.47;;
5774;SDS011;2913;51.120;6.772;2023-06-10T07:55:53;10.57;;;6.25;;
5774;SDS011;2913;51.120;6.772;2023-06-10T07:58:20;11.10;;;6.70;;
5774;SDS011;2913;51.120;6.772;2023-06-10T08:00:47;11.50;;;6.07;;
5774;SDS011;2913;51.120;6.772;2023-06-10T08:03:15;10.55;;;6.07;;
5774;SDS011;2913;51.120;6.772;2023-06-10T08:05:40;10.23;;;5.90;;
5774;SDS011;2913;51.120;6.772;2023-06-10T08:08:06;13.68;;;5.97;;
5774;SDS011;2913;51.120;6.772;2023-06-10T08:10:34;11.82;;;6.20;;
5774;SDS011;2913;51.120;6.772;2023-06-10T08:13:02;9.60;;;6.13;;
5774;SDS011;2913;51.120;6.772;2023-06-10T08:15:30;12.68;;;5.80;;
5774;SDS011;2913;51.120;6.772;2023-06-10T08:17:55;10.18;;;6.07;;
5774;SDS011;2913;51.120;6.772;2023-06-10T08:20:21;8.93;;;5.82;;
5774;SDS011;2913;51.120;6.772;2023-06-10T08:22:47;16.35;;;6.28;;
5774;SDS011;2913;51.120;6.772;2023-06-10T08:25:13;12.45;;;6.60;;
5774;SDS011;2913;51.120;6.772;2023-06-10T08:27:41;15.27;;;6.32;;
5774;SDS011;2913;51.120;6.772;2023-06-10T08:30:07;14.45;;;6.93;;
5774;SDS011;2913;51.120;6.772;2023-06-10T08:32:38;15.30;;;6.78;;
5774;SDS011;2913;51.120;6.772;2023-06-10T08:35:06;10.48;;;6.50;;
5774;SDS011;2913;51.120;6.772;2023-06-10T08:37:35;15.65;;;6.53;;
5774;SDS011;2913;51.120;6.772;2023-06-10T08:40:05;11.85;;;5.82;;
5774;SDS011;2913;51.120;6.772;2023-06-10T08:43:17;12.68;;;6.32;;
5774;SDS011;2913;51.120;6.772;2023-06-10T08:45:30;10.93;;;6.10;;
5774;SDS011;2913;51.120;6.772;2023-06-10T08:48:00;11.75;;;6.32;;
5774;SDS011;2913;51.120;6.772;2023-06-10T08:50:34;8.80;;;6.28;;
5774;SDS011;2913;51.120;6.772;2023-06-10T08:53:04;10.60;;;6.18;;
5774;SDS011;2913;51.120;6.772;2023-06-10T08:55:35;13.68;;;6.47;;
5774;SDS011;2913;51.120;6.772;2023-06-10T08:58:03;15.23;;;6.57;;
5774;SDS011;2913;51.120;6.772;2023-06-10T09:00:29;14.70;;;6.40;;
5774;SDS011;2913;51.120;6.772;2023-06-10T09:02:58;15.40;;;5.97;;
5774;SDS011;2913;51.120;6.772;2023-06-10T09:05:24;14.25;;;6.45;;
5774;SDS011;2913;51.120;6.772;2023-06-10T09:07:52;9.95;;;6.55;;
5774;SDS011;2913;51.120;6.772;2023-06-10T09:10:17;12.18;;;6.28;;
5774;SDS011;2913;51.120;6.772;2023-06-10T09:12:48;16.05;;;6.63;;
5774;SDS011;2913;51.120;6.772;2023-06-10T09:15:16;11.00;;;5.95;;
5774;SDS011;2913;51.120;6.772;2023-06-10T09:17:42;12.43;;;6.50;;
5774;SDS011;2913;51.120;6.772;2023-06-10T09:20:08;14.60;;;6.72;;
5774;SDS011;2913;51.120;6.772;2023-06-10T09:22:40;9.25;;;6.57;;
5774;SDS011;2913;51.120;6.772;2023-06-10T09:25:10;11.93;;;6.78;;
5774;SDS011;2913;51.120;6.772;2023-06-10T09:27:50;12.57;;;7.07;;
5774;SDS011;2913;51.120;6.772;2023-06-10T09:32:55;16.30;;;6.97;;
5774;SDS011;2913;51.120;6.772;2023-06-10T09:35:22;14.70;;;7.15;;
5774;SDS011;2913;51.120;6.772;2023-06-10T09:37:52;11.75;;;7.43;;
5774;SDS011;2913;51.120;6.772;2023-06-10T09:40:23;831.83;;;218.68;;
5774;SDS011;2913;51.120;6.772;2023-06-10T09:42:53;1293.70;;;331.45;;
5774;SDS011;2913;51.120;6.772;2023-06-10T09:45:20;845.03;;;245.38;;
5774;SDS011;2913;51.120;6.772;2023-06-10T09:47:52;1270.57;;;333.98;;
5774;SDS011;2913;51.120;6.772;2023-06-10T09:50:20;1155.85;;;313.52;;
5774;SDS011;2913;51.120;6.772;2023-06-10T09:52:46;1103.80;;;301.60;;
5774;SDS011;2913;51.120;6.772;2023-06-10T09:55:15;964.97;;;275.77;;
5774;SDS011;2913;51.120;6.772;2023-06-10T09:57:41;831.88;;;244.15;;
5774;SDS011;2913;51.120;6.772;2023-06-10T10:00:09;639.47;;;183.18;;
5774;SDS011;2913;51.120;6.772;2023-06-10T10:05:15;18.95;;;7.32;;
5774;SDS011;2913;51.120;6.772;2023-06-10T10:07:49;20.58;;;7.68;;
5774;SDS011;2913;51.120;6.772;2023-06-10T10:10:16;18.30;;;7.18;;
5774;SDS011;2913;51.120;6.772;2023-06-10T10:12:47;15.98;;;7.30;;
5774;SDS011;2913;51.120;6.772;2023-06-10T10:15:15;13.40;;;7.22;;
5774;SDS011;2913;51.120;6.772;2023-06-10T10:17:55;12.07;;;7.32;;
5774;SDS011;2913;51.120;6.772;2023-06-10T10:20:24;13.75;;;7.75;;
5774;SDS011;2913;51.120;6.772;2023-06-10T10:22:57;227.40;;;81.50;;
5774;SDS011;2913;51.120;6.772;2023-06-10T10:25:23;11.98;;;6.88;;
5774;SDS011;2913;51.120;6.772;2023-06-10T10:30:54;542.10;;;173.40;;
5774;SDS011;2913;51.120;6.772;2023-06-10T10:33:36;14.20;;;7.35;;
5774;SDS011;2913;51.120;6.772;2023-06-10T10:36:23;502.52;;;165.55;;
5774;SDS011;2913;51.120;6.772;2023-06-10T10:38:52;10.80;;;6.80;;
5774;SDS011;2913;51.120;6.772;2023-06-10T10:41:19;16.30;;;7.20;;
5774;SDS011;2913;51.120;6.772;2023-06-10T10:43:45;19.02;;;9.65;;
5774;SDS011;2913;51.120;6.772;2023-06-10T10:46:13;11.48;;;7.32;;
5774;SDS011;2913;51.120;6.772;2023-06-10T10:48:44;17.98;;;8.65;;
5774;SDS011;2913;51.120;6.772;2023-06-10T10:51:19;21.85;;;9.68;;
5774;SDS011;2913;51.120;6.772;2023-06-10T10:53:57;22.13;;;9.82;;
5774;SDS011;2913;51.120;6.772;2023-06-10T10:56:38;16.35;;;7.38;;
5774;SDS011;2913;51.120;6.772;2023-06-10T10:59:06;22.42;;;9.57;;
5774;SDS011;2913;51.120;6.772;2023-06-10T11:01:42;15.55;;;7.03;;
5774;SDS011;2913;51.120;6.772;2023-06-10T11:04:13;19.13;;;9.77;;
5774;SDS011;2913;51.120;6.772;2023-06-10T11:06:38;21.23;;;11.30;;
5774;SDS011;2913;51.120;6.772;2023-06-10T11:11:53;24.02;;;11.82;;
5774;SDS011;2913;51.120;6.772;2023-06-10T11:14:27;30.08;;;11.98;;
5774;SDS011;2913;51.120;6.772;2023-06-10T11:16:58;17.92;;;9.07;;
5774;SDS011;2913;51.120;6.772;2023-06-10T11:22:00;42.47;;;13.15;;
5774;SDS011;2913;51.120;6.772;2023-06-10T11:24:33;27.48;;;11.00;;
5774;SDS011;2913;51.120;6.772;2023-06-10T11:27:21;9.32;;;5.18;;
5774;SDS011;2913;51.120;6.772;2023-06-10T11:32:23;10.75;;;6.90;;
5774;SDS011;2913;51.120;6.772;2023-06-10T11:34:57;9.57;;;6.45;;
5774;SDS011;2913;51.120;6.772;2023-06-10T11:37:30;11.63;;;7.00;;
5774;SDS011;2913;51.120;6.772;2023-06-10T11:39:58;11.77;;;6.60;;
5774;SDS011;2913;51.120;6.772;2023-06-10T11:42:26;13.85;;;6.80;;
5774;SDS011;2913;51.120;6.772;2023-06-10T11:44:53;9.98;;;6.38;;
5774;SDS011;2913;51.120;6.772;2023-06-10T11:47:19;11.90;;;6.47;;
5774;SDS011;2913;51.120;6.772;2023-06-10T11:49:45;16.58;;;7.00;;
5774;SDS011;2913;51.120;6.772;2023-06-10T11:52:25;10.15;;;7.03;;
5774;SDS011;2913;51.120;6.772;2023-06-10T11:55:05;18.80;;;6.63;;
5774;SDS011;2913;51.120;6.772;2023-06-10T11:57:34;11.40;;;6.68;;
5774;SDS011;2913;51.120;6.772;2023-06-10T12:00:06;12.95;;;7.28;;
5774;SDS011;2913;51.120;6.772;2023-06-10T12:02:32;10.90;;;7.32;;
5774;SDS011;2913;51.120;6.772;2023-06-10T12:05:09;11.40;;;6.70;;
5774;SDS011;2913;51.120;6.772;2023-06-10T12:07:41;10.30;;;7.05;;
5774;SDS011;2913;51.120;6.772;2023-06-10T12:10:07;15.20;;;6.85;;
5774;SDS011;2913;51.120;6.772;2023-06-10T12:12:34;12.27;;;6.90;;
5774;SDS011;2913;51.120;6.772;2023-06-10T12:15:01;20.15;;;7.75;;
5774;SDS011;2913;51.120;6.772;2023-06-10T12:19:59;13.95;;;7.05;;
5774;SDS011;2913;51.120;6.772;2023-06-10T12:22:42;17.00;;;6.97;;
5774;SDS011;2913;51.120;6.772;2023-06-10T12:25:11;10.10;;;6.55;;
5774;SDS011;2913;51.120;6.772;2023-06-10T12:27:40;14.20;;;6.32;;
5774;SDS011;2913;51.120;6.772;2023-06-10T12:30:18;12.40;;;7.13;;
5774;SDS011;2913;51.120;6.772;2023-06-10T12:32:45;14.13;;;6.50;;
5774;SDS011;2913;51.120;6.772;2023-06-10T12:35:20;9.93;;;6.53;;
5774;SDS011;2913;51.120;6.772;2023-06-10T12:40:26;19.33;;;7.45;;
5774;SDS011;2913;51.120;6.772;2023-06-10T12:42:53;11.73;;;7.10;;
5774;SDS011;2913;51.120;6.772;2023-06-10T12:45:34;14.65;;;6.85;;
5774;SDS011;2913;51.120;6.772;2023-06-10T12:50:32;11.82;;;6.82;;
5774;SDS011;2913;51.120;6.772;2023-06-10T12:52:58;12.05;;;7.07;;
5774;SDS011;2913;51.120;6.772;2023-06-10T12:55:27;13.02;;;7.03;;
5774;SDS011;2913;51.120;6.772;2023-06-10T12:57:53;11.90;;;6.88;;
5774;SDS011;2913;51.120;6.772;2023-06-10T13:00:21;20.00;;;6.78;;
5774;SDS011;2913;51.120;6.772;2023-06-10T13:02:48;13.10;;;7.18;;
5774;SDS011;2913;51.120;6.772;2023-06-10T13:05:16;16.52;;;8.30;;
5774;SDS011;2913;51.120;6.772;2023-06-10T13:07:47;11.77;;;7.20;;
5774;SDS011;2913;51.120;6.772;2023-06-10T13:10:15;11.02;;;6.93;;
5774;SDS011;2913;51.120;6.772;2023-06-10T13:12:44;20.35;;;10.02;;
5774;SDS011;2913;51.120;6.772;2023-06-10T13:15:11;11.60;;;6.07;;
5774;SDS011;2913;51.120;6.772;2023-06-10T13:17:37;12.43;;;7.13;;
5774;SDS011;2913;51.120;6.772;2023-06-10T13:20:07;11.45;;;6.38;;
5774;SDS011;2913;51.120;6.772;2023-06-10T13:22:33;20.40;;;6.72;;
5774;SDS011;2913;51.120;6.772;2023-06-10T13:25:04;10.55;;;6.60;;
5774;SDS011;2913;51.120;6.772;2023-06-10T13:27:33;14.80;;;6.23;;
5774;SDS011;2913;51.120;6.772;2023-06-10T13:30:03;13.18;;;6.60;;
5774;SDS011;2913;51.120;6.772;2023-06-10T13:32:32;13.32;;;6.53;;
5774;SDS011;2913;51.120;6.772;2023-06-10T13:34:58;12.80;;;6.30;;
5774;SDS011;2913;51.120;6.772;2023-06-10T13:37:26;12.02;;;6.07;;
5774;SDS011;2913;51.120;6.772;2023-06-10T13:39:54;15.88;;;6.65;;
5774;SDS011;2913;51.120;6.772;2023-06-10T13:42:20;9.00;;;6.28;;
5774;SDS011;2913;51.120;6.772;2023-06-10T13:44:46;15.43;;;5.93;;
5774;SDS011;2913;51.120;6.772;2023-06-10T13:47:13;11.77;;;6.10;;
5774;SDS011;2913;51.120;6.772;2023-06-10T13:49:44;15.00;;;6.20;;
5774;SDS011;2913;51.120;6.772;2023-06-10T13:52:12;11.38;;;6.03;;
5774;SDS011;2913;51.120;6.772;2023-06-10T13:54:40;7.35;;;6.22;;
5774;SDS011;2913;51.120;6.772;2023-06-10T13:57:05;12.43;;;6.45;;
5774;SDS011;2913;51.120;6.772;2023-06-10T13:59:31;13.63;;;6.53;;
5774;SDS011;2913;51.120;6.772;2023-06-10T14:02:00;9.38;;;6.32;;
5774;SDS011;2913;51.120;6.772;2023-06-10T14:04:28;7.93;;;6.03;;
5774;SDS011;2913;51.120;6.772;2023-06-10T14:06:57;10.65;;;6.82;;
5774;SDS011;2913;51.120;6.772;2023-06-10T14:09:25;15.18;;;6.78;;
5774;SDS011;2913;51.120;6.772;2023-06-10T14:11:51;12.23;;;6.32;;
5774;SDS011;2913;51.120;6.772;2023-06-10T14:14:19;11.23;;;6.88;;
5774;SDS011;2913;51.120;6.772;2023-06-10T14:16:47;14.30;;;7.22;;
5774;SDS011;2913;51.120;6.772;2023-06-10T14:19:13;13.32;;;6.68;;
5774;SDS011;2913;51.120;6.772;2023-06-10T14:21:41;20.63;;;6.82;;
5774;SDS011;2913;51.120;6.772;2023-06-10T14:24:11;16.60;;;7.65;;
5774;SDS011;2913;51.120;6.772;2023-06-10T14:26:39;11.15;;;6.82;;
5774;SDS011;2913;51.120;6.772;2023-06-10T14:29:04;13.93;;;6.72;;
5774;SDS011;2913;51.120;6.772;2023-06-10T14:31:30;15.43;;;7.43;;
5774;SDS011;2913;51.120;6.772;2023-06-10T14:33:58;12.77;;;7.65;;
5774;SDS011;2913;51.120;6.772;2023-06-10T14:36:24;18.30;;;8.32;;
5774;SDS011;2913;51.120;6.772;2023-06-10T14:38:52;13.32;;;7.25;;
5774;SDS011;2913;51.120;6.772;2023-06-10T14:41:21;14.10;;;7.00;;
5774;SDS011;2913;51.120;6.772;2023-06-10T14:43:47;16.27;;;9.50;;
5774;SDS011;2913;51.120;6.772;2023-06-10T14:46:15;21.90;;;12.57;;
5774;SDS011;2913;51.120;6.772;2023-06-10T14:48:45;20.55;;;9.55;;
5774;SDS011;2913;51.120;6.772;2023-06-10T14:51:14;14.25;;;7.70;;
5774;SDS011;2913;51.120;6.772;2023-06-10T14:53:42;9.25;;;6.20;;
5774;SDS011;2913;51.120;6.772;2023-06-10T14:56:07;12.32;;;6.55;;
5774;SDS011;2913;51.120;6.772;2023-06-10T14:58:35;17.38;;;6.93;;
5774;SDS011;2913;51.120;6.772;2023-06-10T15:01:03;17.10;;;7.18;;
5774;SDS011;2913;51.120;6.772;2023-06-10T15:03:28;11.43;;;7.72;;
5774;SDS011;2913;51.120;6.772;2023-06-10T15:05:55;15.30;;;8.13;;
5774;SDS011;2913;51.120;6.772;2023-06-10T15:08:23;17.80;;;9.77;;
5774;SDS011;2913;51.120;6.772;2023-06-10T15:10:50;13.13;;;7.97;;
5774;SDS011;2913;51.120;6.772;2023-06-10T15:13:19;13.50;;;7.82;;
5774;SDS011;2913;51.120;6.772;2023-06-10T15:15:45;23.10;;;11.50;;
5774;SDS011;2913;51.120;6.772;2023-06-10T15:18:10;26.85;;;15.57;;